sensor_id;sensor_type;location;lat;lon;timestamp;temperature;humidity
10390;DHT22;5241;47.830;12.972;2022-11-20T00:01:08;6.30;99.90
10390;DHT22;5241;47.830;12.972;2022-11-20T00:03:34;6.20;99.90
10390;DHT22;5241;47.830;12.972;2022-11-20T00:06:04;6.30;99.90
10390;DHT22;5241;47.830;12.972;2022-11-20T00:08:30;6.30;99.90
10390;DHT22;5241;47.830;12.972;2022-11-20T00:10:56;6.20;99.90
10390;DHT22;5241;47.830;12.972;2022-11-20T00:13:21;6.20;99.90
10390;DHT22;5241;47.830;12.972;2022-11-20T00:15:47;6.20;99.90
10390;DHT22;5241;47.830;12.972;2022-11-20T00:18:12;6.10;99.90
10390;DHT22;5241;47.830;12.972;2022-11-20T00:20:38;6.10;99.90
10390;DHT22;5241;47.830;12.972;2022-11-20T00:23:03;6.00;99.90
10390;DHT22;5241;47.830;12.972;2022-11-20T00:25:29;6.00;99.90
10390;DHT22;5241;47.830;12.972;2022-11-20T00:27:54;6.00;99.90
10390;DHT22;5241;47.830;12.972;2022-11-20T00:30:20;6.00;99.90
10390;DHT22;5241;47.830;12.972;2022-11-20T00:32:46;5.90;99.90
10390;DHT22;5241;47.830;12.972;2022-11-20T00:35:11;5.90;99.90
10390;DHT22;5241;47.830;12.972;2022-11-20T00:37:37;6.00;99.90
10390;DHT22;5241;47.830;12.972;2022-11-20T00:40:03;6.00;99.90
10390;DHT22;5241;47.830;12.972;2022-11-20T00:42:28;6.00;99.90
10390;DHT22;5241;47.830;12.972;2022-11-20T00:44:54;6.00;99.90
10390;DHT22;5241;47.830;12.972;2022-11-20T00:47:19;6.00;99.90
10390;DHT22;5241;47.830;12.972;2022-11-20T00:49:45;6.00;99.90
10390;DHT22;5241;47.830;12.972;2022-11-20T00:52:10;6.00;99.90
10390;DHT22;5241;47.830;12.972;2022-11-20T00:54:36;6.00;99.90
10390;DHT22;5241;47.830;12.972;2022-11-20T00:57:02;6.00;99.90
10390;DHT22;5241;47.830;12.972;2022-11-20T00:59:27;6.00;99.90
10390;DHT22;5241;47.830;12.972;2022-11-20T01:01:53;6.00;99.90
10390;DHT22;5241;47.830;12.972;2022-11-20T01:04:18;5.90;99.90
10390;DHT22;5241;47.830;12.972;2022-11-20T01:06:44;5.90;99.90
10390;DHT22;5241;47.830;12.972;2022-11-20T01:09:12;6.00;99.90
10390;DHT22;5241;47.830;12.972;2022-11-20T01:11:41;6.00;99.90
10390;DHT22;5241;47.830;12.972;2022-11-20T01:14:11;6.00;99.90
10390;DHT22;5241;47.830;12.972;2022-11-20T01:16:42;6.00;99.90
10390;DHT22;5241;47.830;12.972;2022-11-20T01:19:13;6.00;99.90
10390;DHT22;5241;47.830;12.972;2022-11-20T01:21:41;6.00;99.90
10390;DHT22;5241;47.830;12.972;2022-11-20T01:24:10;6.00;99.90
10390;DHT22;5241;47.830;12.972;2022-11-20T01:26:37;6.00;99.90
10390;DHT22;5241;47.830;12.972;2022-11-20T01:29:04;6.00;99.90
10390;DHT22;5241;47.830;12.972;2022-11-20T01:31:34;5.90;99.90
10390;DHT22;5241;47.830;12.972;2022-11-20T01:34:06;5.90;99.90
10390;DHT22;5241;47.830;12.972;2022-11-20T01:36:33;5.90;99.90
10390;DHT22;5241;47.830;12.972;2022-11-20T01:39:03;5.80;99.90
10390;DHT22;5241;47.830;12.972;2022-11-20T01:41:31;5.90;99.90
10390;DHT22;5241;47.830;12.972;2022-11-20T01:44:18;5.90;99.90
10390;DHT22;5241;47.830;12.972;2022-11-20T01:47:05;5.90;99.90
10390;DHT22;5241;47.830;12.972;2022-11-20T01:49:39;6.00;99.90
10390;DHT22;5241;47.830;12.972;2022-11-20T01:52:24;6.00;99.90
10390;DHT22;5241;47.830;12.972;2022-11-20T01:54:58;6.00;99.90
10390;DHT22;5241;47.830;12.972;2022-11-20T01:57:28;6.10;99.90
10390;DHT22;5241;47.830;12.972;2022-11-20T02:00:02;6.10;99.90
10390;DHT22;5241;47.830;12.972;2022-11-20T02:02:28;6.20;99.90
10390;DHT22;5241;47.830;12.972;2022-11-20T02:04:56;6.10;99.90
10390;DHT22;5241;47.830;12.972;2022-11-20T02:07:26;6.20;99.90
10390;DHT22;5241;47.830;12.972;2022-11-20T02:09:53;6.20;99.90
10390;DHT22;5241;47.830;12.972;2022-11-20T02:12:18;6.30;99.90
10390;DHT22;5241;47.830;12.972;2022-11-20T02:15:03;6.30;99.90
10390;DHT22;5241;47.830;12.972;2022-11-20T02:17:29;6.30;99.90
10390;DHT22;5241;47.830;12.972;2022-11-20T02:19:55;6.30;99.90
10390;DHT22;5241;47.830;12.972;2022-11-20T02:22:33;6.30;99.90
10390;DHT22;5241;47.830;12.972;2022-11-20T02:25:02;6.30;99.90
10390;DHT22;5241;47.830;12.972;2022-11-20T02:27:29;6.30;99.90
10390;DHT22;5241;47.830;12.972;2022-11-20T02:29:59;6.30;99.90
10390;DHT22;5241;47.830;12.972;2022-11-20T02:32:31;6.30;99.90
10390;DHT22;5241;47.830;12.972;2022-11-20T02:34:57;6.30;99.90
10390;DHT22;5241;47.830;12.972;2022-11-20T02:37:25;6.30;99.90
10390;DHT22;5241;47.830;12.972;2022-11-20T02:39:53;6.30;99.90
10390;DHT22;5241;47.830;12.972;2022-11-20T02:42:18;6.30;99.90
10390;DHT22;5241;47.830;12.972;2022-11-20T02:44:44;6.30;99.90
10390;DHT22;5241;47.830;12.972;2022-11-20T02:47:09;6.30;99.90
10390;DHT22;5241;47.830;12.972;2022-11-20T02:49:35;6.20;99.90
10390;DHT22;5241;47.830;12.972;2022-11-20T02:52:01;6.20;99.90
10390;DHT22;5241;47.830;12.972;2022-11-20T02:54:26;6.30;99.90
10390;DHT22;5241;47.830;12.972;2022-11-20T02:56:52;6.30;99.90
10390;DHT22;5241;47.830;12.972;2022-11-20T02:59:18;6.30;99.90
10390;DHT22;5241;47.830;12.972;2022-11-20T03:01:43;6.30;99.90
10390;DHT22;5241;47.830;12.972;2022-11-20T03:04:09;6.30;99.90
10390;DHT22;5241;47.830;12.972;2022-11-20T03:06:34;6.30;99.90
10390;DHT22;5241;47.830;12.972;2022-11-20T03:09:00;6.30;99.90
10390;DHT22;5241;47.830;12.972;2022-11-20T03:11:27;6.30;99.90
10390;DHT22;5241;47.830;12.972;2022-11-20T03:13:52;6.30;99.90
10390;DHT22;5241;47.830;12.972;2022-11-20T03:16:20;6.30;99.90
10390;DHT22;5241;47.830;12.972;2022-11-20T03:18:46;6.30;99.90
10390;DHT22;5241;47.830;12.972;2022-11-20T03:21:13;6.30;99.90
10390;DHT22;5241;47.830;12.972;2022-11-20T03:23:40;6.30;99.90
10390;DHT22;5241;47.830;12.972;2022-11-20T03:26:18;6.20;99.90
10390;DHT22;5241;47.830;12.972;2022-11-20T03:28:56;6.20;99.90
10390;DHT22;5241;47.830;12.972;2022-11-20T03:31:25;6.10;99.90
10390;DHT22;5241;47.830;12.972;2022-11-20T03:33:51;6.20;99.90
10390;DHT22;5241;47.830;12.972;2022-11-20T03:36:18;6.10;99.90
10390;DHT22;5241;47.830;12.972;2022-11-20T03:38:44;6.10;99.90
10390;DHT22;5241;47.830;12.972;2022-11-20T03:41:12;6.10;99.90
10390;DHT22;5241;47.830;12.972;2022-11-20T03:43:38;6.10;99.90
10390;DHT22;5241;47.830;12.972;2022-11-20T03:46:05;6.10;99.90
10390;DHT22;5241;47.830;12.972;2022-11-20T03:48:30;6.10;99.90
10390;DHT22;5241;47.830;12.972;2022-11-20T03:51:17;6.10;99.90
10390;DHT22;5241;47.830;12.972;2022-11-20T03:53:46;6.10;99.90
10390;DHT22;5241;47.830;12.972;2022-11-20T03:56:14;6.10;99.90
10390;DHT22;5241;47.830;12.972;2022-11-20T03:58:40;6.10;99.90
10390;DHT22;5241;47.830;12.972;2022-11-20T04:01:08;6.10;99.90
10390;DHT22;5241;47.830;12.972;2022-11-20T04:03:35;6.10;99.90
10390;DHT22;5241;47.830;12.972;2022-11-20T04:06:28;6.10;99.90
10390;DHT22;5241;47.830;12.972;2022-11-20T04:08:55;6.10;99.90
10390;DHT22;5241;47.830;12.972;2022-11-20T04:11:26;6.10;99.90
10390;DHT22;5241;47.830;12.972;2022-11-20T04:13:54;6.10;99.90
10390;DHT22;5241;47.830;12.972;2022-11-20T04:16:21;6.00;99.90
10390;DHT22;5241;47.830;12.972;2022-11-20T04:18:50;6.00;99.90
10390;DHT22;5241;47.830;12.972;2022-11-20T04:21:16;6.00;99.90
10390;DHT22;5241;47.830;12.972;2022-11-20T04:23:42;6.00;99.90
10390;DHT22;5241;47.830;12.972;2022-11-20T04:26:09;5.90;99.90
10390;DHT22;5241;47.830;12.972;2022-11-20T04:28:35;5.90;99.90
10390;DHT22;5241;47.830;12.972;2022-11-20T04:31:16;5.90;99.90
10390;DHT22;5241;47.830;12.972;2022-11-20T04:33:42;5.90;99.90
10390;DHT22;5241;47.830;12.972;2022-11-20T04:36:18;5.90;99.90
10390;DHT22;5241;47.830;12.972;2022-11-20T04:38:44;5.90;99.90
10390;DHT22;5241;47.830;12.972;2022-11-20T04:41:16;5.90;99.90
10390;DHT22;5241;47.830;12.972;2022-11-20T04:43:46;5.80;99.90
10390;DHT22;5241;47.830;12.972;2022-11-20T04:46:12;5.80;99.90
10390;DHT22;5241;47.830;12.972;2022-11-20T04:48:38;5.80;99.90
10390;DHT22;5241;47.830;12.972;2022-11-20T04:51:04;5.80;99.90
10390;DHT22;5241;47.830;12.972;2022-11-20T04:53:30;5.80;99.90
10390;DHT22;5241;47.830;12.972;2022-11-20T04:56:07;5.80;99.90
10390;DHT22;5241;47.830;12.972;2022-11-20T04:58:33;5.70;99.90
10390;DHT22;5241;47.830;12.972;2022-11-20T05:01:20;5.70;99.90
10390;DHT22;5241;47.830;12.972;2022-11-20T05:03:46;5.70;99.90
10390;DHT22;5241;47.830;12.972;2022-11-20T05:06:15;5.70;99.90
10390;DHT22;5241;47.830;12.972;2022-11-20T05:08:41;5.80;99.90
10390;DHT22;5241;47.830;12.972;2022-11-20T05:11:10;5.70;99.90
10390;DHT22;5241;47.830;12.972;2022-11-20T05:13:36;5.80;99.90
10390;DHT22;5241;47.830;12.972;2022-11-20T05:16:10;5.80;99.90
10390;DHT22;5241;47.830;12.972;2022-11-20T05:18:37;5.70;99.90
10390;DHT22;5241;47.830;12.972;2022-11-20T05:21:03;5.70;99.90
10390;DHT22;5241;47.830;12.972;2022-11-20T05:23:29;5.70;99.90
10390;DHT22;5241;47.830;12.972;2022-11-20T05:25:56;5.70;99.90
10390;DHT22;5241;47.830;12.972;2022-11-20T05:28:23;5.70;99.90
10390;DHT22;5241;47.830;12.972;2022-11-20T05:30:49;5.80;99.90
10390;DHT22;5241;47.830;12.972;2022-11-20T05:33:15;5.80;99.90
10390;DHT22;5241;47.830;12.972;2022-11-20T05:35:40;5.80;99.90
10390;DHT22;5241;47.830;12.972;2022-11-20T05:38:06;5.90;99.90
10390;DHT22;5241;47.830;12.972;2022-11-20T05:40:31;5.90;99.90
10390;DHT22;5241;47.830;12.972;2022-11-20T05:42:57;5.90;99.90
10390;DHT22;5241;47.830;12.972;2022-11-20T05:45:23;5.90;99.90
10390;DHT22;5241;47.830;12.972;2022-11-20T05:47:48;5.80;99.90
10390;DHT22;5241;47.830;12.972;2022-11-20T05:50:14;5.80;99.90
10390;DHT22;5241;47.830;12.972;2022-11-20T05:52:40;5.70;99.90
10390;DHT22;5241;47.830;12.972;2022-11-20T05:55:06;5.70;99.90
10390;DHT22;5241;47.830;12.972;2022-11-20T05:57:32;5.70;99.90
10390;DHT22;5241;47.830;12.972;2022-11-20T05:59:58;5.70;99.90
10390;DHT22;5241;47.830;12.972;2022-11-20T06:02:23;5.70;99.90
10390;DHT22;5241;47.830;12.972;2022-11-20T06:04:49;5.70;99.90
10390;DHT22;5241;47.830;12.972;2022-11-20T06:07:15;5.70;99.90
10390;DHT22;5241;47.830;12.972;2022-11-20T06:09:40;5.70;99.90
10390;DHT22;5241;47.830;12.972;2022-11-20T06:12:06;5.70;99.90
10390;DHT22;5241;47.830;12.972;2022-11-20T06:14:32;5.70;99.90
10390;DHT22;5241;47.830;12.972;2022-11-20T06:16:58;5.60;99.90
10390;DHT22;5241;47.830;12.972;2022-11-20T06:19:24;5.60;99.90
10390;DHT22;5241;47.830;12.972;2022-11-20T06:21:49;5.60;99.90
10390;DHT22;5241;47.830;12.972;2022-11-20T06:24:15;5.70;99.90
10390;DHT22;5241;47.830;12.972;2022-11-20T06:26:41;5.70;99.90
10390;DHT22;5241;47.830;12.972;2022-11-20T06:29:07;5.70;99.90
10390;DHT22;5241;47.830;12.972;2022-11-20T06:31:32;5.80;99.90
10390;DHT22;5241;47.830;12.972;2022-11-20T06:34:00;5.70;99.90
10390;DHT22;5241;47.830;12.972;2022-11-20T06:36:26;5.70;99.90
10390;DHT22;5241;47.830;12.972;2022-11-20T06:38:52;5.70;99.90
10390;DHT22;5241;47.830;12.972;2022-11-20T06:41:20;5.70;99.90
10390;DHT22;5241;47.830;12.972;2022-11-20T06:43:45;5.70;99.90
10390;DHT22;5241;47.830;12.972;2022-11-20T06:46:12;5.70;99.90
10390;DHT22;5241;47.830;12.972;2022-11-20T06:48:39;5.80;99.90
10390;DHT22;5241;47.830;12.972;2022-11-20T06:51:06;5.80;99.90
10390;DHT22;5241;47.830;12.972;2022-11-20T06:53:32;5.80;99.90
10390;DHT22;5241;47.830;12.972;2022-11-20T06:55:58;5.90;99.90
10390;DHT22;5241;47.830;12.972;2022-11-20T06:58:26;5.80;99.90
10390;DHT22;5241;47.830;12.972;2022-11-20T07:00:53;5.80;99.90
10390;DHT22;5241;47.830;12.972;2022-11-20T07:03:18;5.80;99.90
10390;DHT22;5241;47.830;12.972;2022-11-20T07:05:44;5.90;99.90
10390;DHT22;5241;47.830;12.972;2022-11-20T07:08:11;5.90;99.90
10390;DHT22;5241;47.830;12.972;2022-11-20T07:10:37;6.00;99.90
10390;DHT22;5241;47.830;12.972;2022-11-20T07:13:03;6.00;99.90
10390;DHT22;5241;47.830;12.972;2022-11-20T07:15:29;6.10;99.90
10390;DHT22;5241;47.830;12.972;2022-11-20T07:17:55;6.20;99.90
10390;DHT22;5241;47.830;12.972;2022-11-20T07:20:20;6.20;99.90
10390;DHT22;5241;47.830;12.972;2022-11-20T07:22:46;6.30;99.90
10390;DHT22;5241;47.830;12.972;2022-11-20T07:25:12;6.40;99.90
10390;DHT22;5241;47.830;12.972;2022-11-20T07:27:37;6.40;99.90
10390;DHT22;5241;47.830;12.972;2022-11-20T07:30:03;6.40;99.90
10390;DHT22;5241;47.830;12.972;2022-11-20T07:32:29;6.40;99.90
10390;DHT22;5241;47.830;12.972;2022-11-20T07:34:55;6.40;99.90
10390;DHT22;5241;47.830;12.972;2022-11-20T07:37:20;6.50;99.90
10390;DHT22;5241;47.830;12.972;2022-11-20T07:39:46;6.40;99.90
10390;DHT22;5241;47.830;12.972;2022-11-20T07:42:11;6.40;99.90
10390;DHT22;5241;47.830;12.972;2022-11-20T07:44:37;6.60;99.90
10390;DHT22;5241;47.830;12.972;2022-11-20T07:47:03;6.60;99.90
10390;DHT22;5241;47.830;12.972;2022-11-20T07:49:29;6.70;99.90
10390;DHT22;5241;47.830;12.972;2022-11-20T07:51:54;6.80;99.90
10390;DHT22;5241;47.830;12.972;2022-11-20T07:54:20;6.90;99.90
10390;DHT22;5241;47.830;12.972;2022-11-20T07:56:47;7.00;99.90
10390;DHT22;5241;47.830;12.972;2022-11-20T07:59:13;6.90;99.90
10390;DHT22;5241;47.830;12.972;2022-11-20T08:01:39;7.00;99.90
10390;DHT22;5241;47.830;12.972;2022-11-20T08:04:05;7.20;99.90
10390;DHT22;5241;47.830;12.972;2022-11-20T08:06:31;7.20;99.90
10390;DHT22;5241;47.830;12.972;2022-11-20T08:08:56;7.20;99.90
10390;DHT22;5241;47.830;12.972;2022-11-20T08:11:22;7.10;99.90
10390;DHT22;5241;47.830;12.972;2022-11-20T08:14:07;7.10;99.90
10390;DHT22;5241;47.830;12.972;2022-11-20T08:16:43;7.10;99.90
10390;DHT22;5241;47.830;12.972;2022-11-20T08:19:09;7.10;99.90
10390;DHT22;5241;47.830;12.972;2022-11-20T08:21:35;7.20;99.90
10390;DHT22;5241;47.830;12.972;2022-11-20T08:24:00;7.30;99.90
10390;DHT22;5241;47.830;12.972;2022-11-20T08:26:26;7.30;99.90
10390;DHT22;5241;47.830;12.972;2022-11-20T08:28:58;7.40;99.90
10390;DHT22;5241;47.830;12.972;2022-11-20T08:31:25;7.30;99.90
10390;DHT22;5241;47.830;12.972;2022-11-20T08:33:51;7.40;99.90
10390;DHT22;5241;47.830;12.972;2022-11-20T08:36:17;7.40;99.90
10390;DHT22;5241;47.830;12.972;2022-11-20T08:38:47;7.40;99.90
10390;DHT22;5241;47.830;12.972;2022-11-20T08:41:13;7.50;99.90
10390;DHT22;5241;47.830;12.972;2022-11-20T08:44:00;7.50;99.90
10390;DHT22;5241;47.830;12.972;2022-11-20T08:46:27;7.60;99.90
10390;DHT22;5241;47.830;12.972;2022-11-20T08:48:53;7.60;99.90
10390;DHT22;5241;47.830;12.972;2022-11-20T08:51:19;7.60;99.90
10390;DHT22;5241;47.830;12.972;2022-11-20T08:53:46;7.80;99.90
10390;DHT22;5241;47.830;12.972;2022-11-20T08:56:13;7.70;99.90
10390;DHT22;5241;47.830;12.972;2022-11-20T08:58:39;7.80;99.90
10390;DHT22;5241;47.830;12.972;2022-11-20T09:01:05;7.90;99.90
10390;DHT22;5241;47.830;12.972;2022-11-20T09:03:30;7.80;99.90
10390;DHT22;5241;47.830;12.972;2022-11-20T09:06:00;7.80;99.90
10390;DHT22;5241;47.830;12.972;2022-11-20T09:08:28;7.90;99.90
10390;DHT22;5241;47.830;12.972;2022-11-20T09:10:55;8.10;99.90
10390;DHT22;5241;47.830;12.972;2022-11-20T09:13:22;8.20;99.90
10390;DHT22;5241;47.830;12.972;2022-11-20T09:15:59;8.30;99.90
10390;DHT22;5241;47.830;12.972;2022-11-20T09:18:26;8.30;99.90
10390;DHT22;5241;47.830;12.972;2022-11-20T09:20:56;8.30;99.90
10390;DHT22;5241;47.830;12.972;2022-11-20T09:23:22;8.30;99.90
10390;DHT22;5241;47.830;12.972;2022-11-20T09:25:48;8.30;99.90
10390;DHT22;5241;47.830;12.972;2022-11-20T09:28:14;8.20;99.90
10390;DHT22;5241;47.830;12.972;2022-11-20T09:30:39;8.30;99.90
10390;DHT22;5241;47.830;12.972;2022-11-20T09:33:05;8.20;99.90
10390;DHT22;5241;47.830;12.972;2022-11-20T09:35:32;8.20;99.90
10390;DHT22;5241;47.830;12.972;2022-11-20T09:37:57;8.30;99.90
10390;DHT22;5241;47.830;12.972;2022-11-20T09:40:26;8.30;99.90
10390;DHT22;5241;47.830;12.972;2022-11-20T09:56:28;8.10;99.90
10390;DHT22;5241;47.830;12.972;2022-11-20T09:58:57;8.10;99.90
10390;DHT22;5241;47.830;12.972;2022-11-20T10:01:26;8.00;99.90
10390;DHT22;5241;47.830;12.972;2022-11-20T10:04:09;8.10;99.90
10390;DHT22;5241;47.830;12.972;2022-11-20T10:06:56;8.00;99.90
10390;DHT22;5241;47.830;12.972;2022-11-20T10:09:32;7.80;99.90
10390;DHT22;5241;47.830;12.972;2022-11-20T10:14:50;7.80;99.90
10390;DHT22;5241;47.830;12.972;2022-11-20T10:20:16;7.90;99.90
10390;DHT22;5241;47.830;12.972;2022-11-20T10:25:39;8.40;99.90
10390;DHT22;5241;47.830;12.972;2022-11-20T10:30:42;8.60;99.90
10390;DHT22;5241;47.830;12.972;2022-11-20T10:33:18;9.20;99.90
10390;DHT22;5241;47.830;12.972;2022-11-20T10:38:57;9.70;99.90
10390;DHT22;5241;47.830;12.972;2022-11-20T10:41:28;10.10;99.90
10390;DHT22;5241;47.830;12.972;2022-11-20T10:44:15;10.00;99.90
10390;DHT22;5241;47.830;12.972;2022-11-20T10:47:01;10.60;99.90
10390;DHT22;5241;47.830;12.972;2022-11-20T10:49:27;10.50;99.90
10390;DHT22;5241;47.830;12.972;2022-11-20T10:52:02;10.30;99.90
10390;DHT22;5241;47.830;12.972;2022-11-20T10:57:31;10.60;99.90
10390;DHT22;5241;47.830;12.972;2022-11-20T11:00:09;10.60;99.90
10390;DHT22;5241;47.830;12.972;2022-11-20T11:08:19;9.90;99.90
10390;DHT22;5241;47.830;12.972;2022-11-20T11:10:46;9.60;99.90
10390;DHT22;5241;47.830;12.972;2022-11-20T11:13:26;9.40;99.90
10390;DHT22;5241;47.830;12.972;2022-11-20T11:15:52;9.10;99.90
10390;DHT22;5241;47.830;12.972;2022-11-20T11:18:32;8.90;99.90
10390;DHT22;5241;47.830;12.972;2022-11-20T11:21:03;8.70;99.90
10390;DHT22;5241;47.830;12.972;2022-11-20T11:23:32;8.90;99.90
10390;DHT22;5241;47.830;12.972;2022-11-20T11:26:01;9.00;99.90
10390;DHT22;5241;47.830;12.972;2022-11-20T11:28:27;9.00;99.90
10390;DHT22;5241;47.830;12.972;2022-11-20T11:30:54;9.00;99.90
10390;DHT22;5241;47.830;12.972;2022-11-20T11:33:28;9.20;99.90
10390;DHT22;5241;47.830;12.972;2022-11-20T11:35:55;9.30;99.90
10390;DHT22;5241;47.830;12.972;2022-11-20T11:38:38;9.30;99.90
10390;DHT22;5241;47.830;12.972;2022-11-20T11:41:05;9.50;99.90
10390;DHT22;5241;47.830;12.972;2022-11-20T11:43:34;9.50;99.90
10390;DHT22;5241;47.830;12.972;2022-11-20T11:46:31;9.80;99.90
10390;DHT22;5241;47.830;12.972;2022-11-20T11:54:29;10.10;99.90
10390;DHT22;5241;47.830;12.972;2022-11-20T11:57:00;10.30;99.90
10390;DHT22;5241;47.830;12.972;2022-11-20T11:59:34;10.50;99.90
10390;DHT22;5241;47.830;12.972;2022-11-20T12:02:23;10.50;99.90
10390;DHT22;5241;47.830;12.972;2022-11-20T12:04:58;10.50;99.90
10390;DHT22;5241;47.830;12.972;2022-11-20T12:07:47;11.10;99.90
10390;DHT22;5241;47.830;12.972;2022-11-20T12:12:55;11.30;99.90
10390;DHT22;5241;47.830;12.972;2022-11-20T12:15:30;11.60;99.90
10390;DHT22;5241;47.830;12.972;2022-11-20T12:17:56;11.60;98.10
10390;DHT22;5241;47.830;12.972;2022-11-20T12:20:26;11.50;98.90
10390;DHT22;5241;47.830;12.972;2022-11-20T12:23:09;11.70;97.00
10390;DHT22;5241;47.830;12.972;2022-11-20T12:25:40;11.20;95.30
10390;DHT22;5241;47.830;12.972;2022-11-20T12:28:13;10.70;98.40
10390;DHT22;5241;47.830;12.972;2022-11-20T12:31:13;10.30;99.50
10390;DHT22;5241;47.830;12.972;2022-11-20T12:34:02;10.50;99.90
10390;DHT22;5241;47.830;12.972;2022-11-20T12:36:41;10.50;98.60
10390;DHT22;5241;47.830;12.972;2022-11-20T12:39:33;10.70;98.40
10390;DHT22;5241;47.830;12.972;2022-11-20T12:42:23;10.80;99.30
10390;DHT22;5241;47.830;12.972;2022-11-20T12:53:19;10.10;97.50
10390;DHT22;5241;47.830;12.972;2022-11-20T13:01:19;9.80;98.00
10390;DHT22;5241;47.830;12.972;2022-11-20T13:04:18;9.70;98.70
10390;DHT22;5241;47.830;12.972;2022-11-20T13:06:44;9.60;99.90
10390;DHT22;5241;47.830;12.972;2022-11-20T13:09:14;9.50;99.90
10390;DHT22;5241;47.830;12.972;2022-11-20T13:12:12;9.40;99.90
10390;DHT22;5241;47.830;12.972;2022-11-20T13:17:34;9.50;99.90
10390;DHT22;5241;47.830;12.972;2022-11-20T13:20:02;9.30;99.40
10390;DHT22;5241;47.830;12.972;2022-11-20T13:22:46;9.20;99.90
10390;DHT22;5241;47.830;12.972;2022-11-20T13:25:28;9.10;99.90
10390;DHT22;5241;47.830;12.972;2022-11-20T13:27:56;9.10;99.90
10390;DHT22;5241;47.830;12.972;2022-11-20T13:30:24;9.10;99.90
10390;DHT22;5241;47.830;12.972;2022-11-20T13:33:00;9.00;99.90
10390;DHT22;5241;47.830;12.972;2022-11-20T13:38:10;8.90;99.90
10390;DHT22;5241;47.830;12.972;2022-11-20T13:40:51;8.90;99.90
10390;DHT22;5241;47.830;12.972;2022-11-20T13:43:35;8.90;99.90
10390;DHT22;5241;47.830;12.972;2022-11-20T13:46:06;8.90;99.90
10390;DHT22;5241;47.830;12.972;2022-11-20T13:48:46;8.80;99.90
10390;DHT22;5241;47.830;12.972;2022-11-20T13:51:36;8.90;99.90
10390;DHT22;5241;47.830;12.972;2022-11-20T14:00:23;8.90;99.90
10390;DHT22;5241;47.830;12.972;2022-11-20T14:03:09;9.00;99.90
10390;DHT22;5241;47.830;12.972;2022-11-20T14:05:40;9.00;99.90
10390;DHT22;5241;47.830;12.972;2022-11-20T14:08:21;9.00;99.90
10390;DHT22;5241;47.830;12.972;2022-11-20T14:10:49;9.00;99.90
10390;DHT22;5241;47.830;12.972;2022-11-20T14:13:19;9.10;99.90
10390;DHT22;5241;47.830;12.972;2022-11-20T14:15:44;9.20;99.90
10390;DHT22;5241;47.830;12.972;2022-11-20T14:18:28;9.20;99.90
10390;DHT22;5241;47.830;12.972;2022-11-20T14:20:54;9.30;99.90
10390;DHT22;5241;47.830;12.972;2022-11-20T14:23:27;9.00;99.90
10390;DHT22;5241;47.830;12.972;2022-11-20T14:25:53;8.80;99.90
10390;DHT22;5241;47.830;12.972;2022-11-20T14:28:37;8.80;99.90
10390;DHT22;5241;47.830;12.972;2022-11-20T14:31:02;8.70;99.90
10390;DHT22;5241;47.830;12.972;2022-11-20T14:33:28;8.70;99.90
10390;DHT22;5241;47.830;12.972;2022-11-20T14:35:55;8.60;99.90
10390;DHT22;5241;47.830;12.972;2022-11-20T14:38:27;8.50;99.90
10390;DHT22;5241;47.830;12.972;2022-11-20T14:40:52;8.40;99.90
10390;DHT22;5241;47.830;12.972;2022-11-20T14:43:25;8.30;99.90
10390;DHT22;5241;47.830;12.972;2022-11-20T14:46:00;8.20;99.90
10390;DHT22;5241;47.830;12.972;2022-11-20T14:51:05;8.10;99.90
10390;DHT22;5241;47.830;12.972;2022-11-20T14:53:30;8.10;99.90
10390;DHT22;5241;47.830;12.972;2022-11-20T14:55:59;8.20;99.90
10390;DHT22;5241;47.830;12.972;2022-11-20T14:58:30;8.20;99.90
10390;DHT22;5241;47.830;12.972;2022-11-20T15:01:05;8.10;99.90
10390;DHT22;5241;47.830;12.972;2022-11-20T15:03:39;8.10;99.90
10390;DHT22;5241;47.830;12.972;2022-11-20T15:06:06;8.00;99.90
10390;DHT22;5241;47.830;12.972;2022-11-20T15:08:33;8.00;99.90
10390;DHT22;5241;47.830;12.972;2022-11-20T15:10:59;7.90;99.90
10390;DHT22;5241;47.830;12.972;2022-11-20T15:13:26;7.90;99.90
10390;DHT22;5241;47.830;12.972;2022-11-20T15:15:56;7.90;99.90
10390;DHT22;5241;47.830;12.972;2022-11-20T15:18:24;7.90;99.90
10390;DHT22;5241;47.830;12.972;2022-11-20T15:20:52;7.80;99.90
10390;DHT22;5241;47.830;12.972;2022-11-20T15:23:19;7.80;99.90
10390;DHT22;5241;47.830;12.972;2022-11-20T15:25:45;7.80;99.90
10390;DHT22;5241;47.830;12.972;2022-11-20T15:30:53;7.60;99.90
10390;DHT22;5241;47.830;12.972;2022-11-20T15:33:21;7.60;99.90
10390;DHT22;5241;47.830;12.972;2022-11-20T15:35:46;7.50;99.90
10390;DHT22;5241;47.830;12.972;2022-11-20T15:38:12;7.50;99.90
10390;DHT22;5241;47.830;12.972;2022-11-20T15:40:37;7.40;99.90
10390;DHT22;5241;47.830;12.972;2022-11-20T15:43:03;7.30;99.90
10390;DHT22;5241;47.830;12.972;2022-11-20T15:45:44;7.30;99.90
10390;DHT22;5241;47.830;12.972;2022-11-20T15:50:58;7.20;99.90
10390;DHT22;5241;47.830;12.972;2022-11-20T15:53:24;7.10;99.90
10390;DHT22;5241;47.830;12.972;2022-11-20T15:55:50;7.10;99.90
10390;DHT22;5241;47.830;12.972;2022-11-20T15:58:16;7.10;99.90
10390;DHT22;5241;47.830;12.972;2022-11-20T16:00:44;7.00;99.90
10390;DHT22;5241;47.830;12.972;2022-11-20T16:03:14;7.00;99.90
10390;DHT22;5241;47.830;12.972;2022-11-20T16:05:40;6.90;99.90
10390;DHT22;5241;47.830;12.972;2022-11-20T16:08:06;6.90;99.90
10390;DHT22;5241;47.830;12.972;2022-11-20T16:10:31;6.90;99.90
10390;DHT22;5241;47.830;12.972;2022-11-20T16:12:57;6.90;99.90
10390;DHT22;5241;47.830;12.972;2022-11-20T16:15:41;6.80;99.90
10390;DHT22;5241;47.830;12.972;2022-11-20T16:18:19;6.80;99.90
10390;DHT22;5241;47.830;12.972;2022-11-20T16:20:47;6.90;99.90
10390;DHT22;5241;47.830;12.972;2022-11-20T16:23:13;6.90;99.90
10390;DHT22;5241;47.830;12.972;2022-11-20T16:25:39;6.90;99.90
10390;DHT22;5241;47.830;12.972;2022-11-20T16:28:05;6.90;99.90
10390;DHT22;5241;47.830;12.972;2022-11-20T16:30:32;6.80;99.90
10390;DHT22;5241;47.830;12.972;2022-11-20T16:32:58;6.80;99.90
10390;DHT22;5241;47.830;12.972;2022-11-20T16:35:26;6.80;99.90
10390;DHT22;5241;47.830;12.972;2022-11-20T16:37:52;6.80;99.90
10390;DHT22;5241;47.830;12.972;2022-11-20T16:40:18;6.80;99.90
10390;DHT22;5241;47.830;12.972;2022-11-20T16:42:43;6.80;99.90
10390;DHT22;5241;47.830;12.972;2022-11-20T16:45:09;6.80;99.90
10390;DHT22;5241;47.830;12.972;2022-11-20T16:47:35;6.70;99.90
10390;DHT22;5241;47.830;12.972;2022-11-20T16:50:02;6.70;99.90
10390;DHT22;5241;47.830;12.972;2022-11-20T16:52:29;6.60;99.90
10390;DHT22;5241;47.830;12.972;2022-11-20T16:54:55;6.50;99.90
10390;DHT22;5241;47.830;12.972;2022-11-20T16:57:21;6.40;99.90
10390;DHT22;5241;47.830;12.972;2022-11-20T16:59:47;6.40;99.90
10390;DHT22;5241;47.830;12.972;2022-11-20T17:02:13;6.40;99.90
10390;DHT22;5241;47.830;12.972;2022-11-20T17:04:39;6.30;99.90
10390;DHT22;5241;47.830;12.972;2022-11-20T17:07:06;6.30;99.90
10390;DHT22;5241;47.830;12.972;2022-11-20T17:09:31;6.30;99.90
10390;DHT22;5241;47.830;12.972;2022-11-20T17:11:57;6.30;99.90
10390;DHT22;5241;47.830;12.972;2022-11-20T17:14:22;6.30;99.90
10390;DHT22;5241;47.830;12.972;2022-11-20T17:16:48;6.20;99.90